createdAt,value
2022-10-09T00:01:39.313Z,5.88
2022-10-09T00:04:07.037Z,5.50
2022-10-09T00:06:37.791Z,9.70
2022-10-09T00:09:08.324Z,6.55
2022-10-09T00:11:37.942Z,6.28
2022-10-09T00:14:05.206Z,4.38
2022-10-09T00:16:33.334Z,5.68
2022-10-09T00:19:00.860Z,7.00
2022-10-09T00:21:33.094Z,6.57
2022-10-09T00:24:02.243Z,5.32
2022-10-09T00:26:30.317Z,4.30
2022-10-09T00:28:58.336Z,5.72
2022-10-09T00:31:28.236Z,3.03
2022-10-09T00:33:56.524Z,7.07
2022-10-09T00:36:29.448Z,4.45
2022-10-09T00:38:57.307Z,9.38
2022-10-09T00:41:30.378Z,5.40
2022-10-09T00:44:00.501Z,8.13
2022-10-09T00:46:35.266Z,8.27
2022-10-09T00:49:26.708Z,4.90
2022-10-09T00:51:56.845Z,6.40
2022-10-09T00:54:27.759Z,7.85
2022-10-09T00:56:58.310Z,5.80
2022-10-09T00:59:26.733Z,9.77
2022-10-09T01:01:55.982Z,6.20
2022-10-09T01:04:26.384Z,7.05
2022-10-09T01:07:18.246Z,5.43
2022-10-09T01:10:06.779Z,6.80
2022-10-09T01:12:48.066Z,7.50
2022-10-09T01:15:21.463Z,11.90
2022-10-09T01:18:13.902Z,7.72
2022-10-09T01:20:57.022Z,8.88
2022-10-09T01:23:42.312Z,9.60
2022-10-09T01:26:47.066Z,3.67
2022-10-09T01:29:16.049Z,3.55
2022-10-09T01:31:47.176Z,8.75
2022-10-09T01:34:18.905Z,3.17
2022-10-09T01:39:20.194Z,5.07
2022-10-09T01:41:50.319Z,6.65
2022-10-09T01:44:20.536Z,8.38
2022-10-09T01:46:50.708Z,7.63
2022-10-09T01:49:42.340Z,4.70
2022-10-09T01:52:24.888Z,2.90
2022-10-09T01:55:07.419Z,2.97
2022-10-09T01:57:38.500Z,7.93
2022-10-09T02:00:10.333Z,8.60
2022-10-09T02:02:39.557Z,6.70
2022-10-09T02:05:13.410Z,5.43
2022-10-09T02:07:41.399Z,4.32
2022-10-09T02:10:10.282Z,5.03
2022-10-09T02:12:43.982Z,2.92
2022-10-09T02:15:12.126Z,4.93
2022-10-09T02:17:54.322Z,6.18
2022-10-09T02:20:34.898Z,5.90
2022-10-09T02:23:12.845Z,9.60
2022-10-09T02:25:41.211Z,6.45
2022-10-09T02:28:12.539Z,5.07
2022-10-09T02:30:52.661Z,5.45
2022-10-09T02:33:27.815Z,4.75
2022-10-09T02:35:57.699Z,2.22
2022-10-09T02:38:26.489Z,6.28
2022-10-09T02:40:57.687Z,3.33
2022-10-09T02:43:24.927Z,11.23
2022-10-09T02:45:52.856Z,7.82
2022-10-09T02:48:27.471Z,4.00
2022-10-09T02:50:54.865Z,5.03
2022-10-09T02:53:22.524Z,4.10
2022-10-09T02:55:52.414Z,5.38
2022-10-09T02:58:20.071Z,3.75
2022-10-09T03:00:52.002Z,6.13
2022-10-09T03:03:20.792Z,9.10
2022-10-09T03:05:49.041Z,6.60
2022-10-09T03:08:16.887Z,5.22
2022-10-09T03:10:44.469Z,4.78
2022-10-09T03:13:14.123Z,4.97
2022-10-09T03:15:44.566Z,4.28
2022-10-09T03:18:13.959Z,4.55
2022-10-09T03:20:41.446Z,3.58
2022-10-09T03:23:12.352Z,5.32
2022-10-09T03:25:39.690Z,7.82
2022-10-09T03:28:07.175Z,6.50
2022-10-09T03:30:34.690Z,5.65
2022-10-09T03:33:02.178Z,4.85
2022-10-09T03:35:29.913Z,6.43
2022-10-09T03:37:57.398Z,8.60
2022-10-09T03:40:24.698Z,5.35
2022-10-09T03:42:52.800Z,3.42
2022-10-09T03:45:20.345Z,5.32
2022-10-09T03:47:47.592Z,3.22
2022-10-09T03:50:17.033Z,6.03
2022-10-09T03:52:47.795Z,5.97
2022-10-09T03:55:15.753Z,4.13
2022-10-09T03:57:43.391Z,6.32
2022-10-09T04:00:11.886Z,5.80
2022-10-09T04:02:39.520Z,6.22
2022-10-09T04:05:09.998Z,6.32
2022-10-09T04:07:39.749Z,5.68
2022-10-09T04:10:07.547Z,7.00
2022-10-09T04:12:34.772Z,3.08
2022-10-09T04:15:02.028Z,5.13
2022-10-09T04:17:31.678Z,2.28
2022-10-09T04:19:59.201Z,2.28
2022-10-09T04:22:28.842Z,3.33
2022-10-09T04:24:56.067Z,3.67
2022-10-09T04:27:24.350Z,4.30
2022-10-09T04:29:56.707Z,5.03
2022-10-09T04:32:24.052Z,3.97
2022-10-09T04:34:56.788Z,4.85
2022-10-09T04:37:24.104Z,3.80
2022-10-09T04:39:51.195Z,2.97
2022-10-09T04:42:19.992Z,5.50
2022-10-09T04:44:48.091Z,4.30
2022-10-09T04:47:15.299Z,4.38
2022-10-09T04:49:43.375Z,5.95
2022-10-09T04:52:10.534Z,6.35
2022-10-09T04:54:38.105Z,6.80
2022-10-09T04:57:05.583Z,3.75
2022-10-09T04:59:35.915Z,4.78
2022-10-09T05:02:04.383Z,2.50
2022-10-09T05:04:31.766Z,5.53
2022-10-09T05:06:59.262Z,5.72
2022-10-09T05:09:27.364Z,5.28
2022-10-09T05:11:56.995Z,4.22
2022-10-09T05:14:24.655Z,4.70
2022-10-09T05:17:14.999Z,4.15
2022-10-09T05:19:42.677Z,5.40
2022-10-09T05:22:13.331Z,4.50
2022-10-09T05:24:40.456Z,2.35
2022-10-09T05:27:08.292Z,6.13
2022-10-09T05:29:36.113Z,5.72
2022-10-09T05:32:03.876Z,4.35
2022-10-09T05:34:31.797Z,3.35
2022-10-09T05:37:02.539Z,4.72
2022-10-09T05:39:32.793Z,4.38
2022-10-09T05:42:01.031Z,2.42
2022-10-09T05:44:28.873Z,3.17
2022-10-09T05:46:56.517Z,6.20
2022-10-09T05:49:24.037Z,3.30
2022-10-09T05:52:06.700Z,4.38
2022-10-09T05:54:33.950Z,4.88
2022-10-09T05:57:04.819Z,5.88
2022-10-09T05:59:39.867Z,7.97
2022-10-09T06:02:07.710Z,5.20
2022-10-09T06:04:34.887Z,3.42
2022-10-09T06:07:02.493Z,4.13
2022-10-09T06:09:30.178Z,2.95
2022-10-09T06:12:01.363Z,4.28
2022-10-09T06:14:29.080Z,3.55
2022-10-09T06:16:58.984Z,3.88
2022-10-09T06:19:26.368Z,3.45
2022-10-09T06:21:54.882Z,3.25
2022-10-09T06:24:28.722Z,4.03
2022-10-09T06:26:58.488Z,2.97
2022-10-09T06:29:26.253Z,3.05
2022-10-09T06:31:54.485Z,5.90
2022-10-09T06:34:22.537Z,2.70
2022-10-09T06:36:50.248Z,3.72
2022-10-09T06:39:17.539Z,3.78
2022-10-09T06:41:45.153Z,5.10
2022-10-09T06:44:16.556Z,4.38
2022-10-09T06:46:45.782Z,3.10
2022-10-09T06:49:14.044Z,4.22
2022-10-09T06:51:43.915Z,2.35
2022-10-09T06:54:14.605Z,4.55
2022-10-09T06:56:45.469Z,2.92
2022-10-09T06:59:16.578Z,3.35
2022-10-09T07:01:47.149Z,2.70
2022-10-09T07:04:24.531Z,4.40
2022-10-09T07:06:54.679Z,4.13
2022-10-09T07:09:22.489Z,2.67
2022-10-09T07:11:53.697Z,3.03
2022-10-09T07:14:23.646Z,4.15
2022-10-09T07:16:52.704Z,3.42
2022-10-09T07:19:20.479Z,3.55
2022-10-09T07:21:53.719Z,4.00
2022-10-09T07:24:26.091Z,3.72
2022-10-09T07:26:57.056Z,2.72
2022-10-09T07:29:27.583Z,2.70
2022-10-09T07:31:54.944Z,4.13
2022-10-09T07:34:22.225Z,3.88
2022-10-09T07:36:49.719Z,2.88
2022-10-09T07:39:19.641Z,3.20
2022-10-09T07:41:50.030Z,2.58
2022-10-09T07:44:23.700Z,3.33
2022-10-09T07:47:01.904Z,3.33
2022-10-09T07:49:43.309Z,2.47
2022-10-09T07:52:17.004Z,3.00
2022-10-09T07:54:48.557Z,3.53
2022-10-09T07:57:16.295Z,4.63
2022-10-09T07:59:43.519Z,2.85
2022-10-09T08:02:11.754Z,3.80
2022-10-09T08:04:44.260Z,2.03
2022-10-09T08:07:14.194Z,2.90
2022-10-09T08:09:42.226Z,4.57
2022-10-09T08:12:09.636Z,4.15
2022-10-09T08:14:36.933Z,3.60
2022-10-09T08:17:04.596Z,2.55
2022-10-09T08:19:34.520Z,3.05
2022-10-09T08:22:11.044Z,3.20
2022-10-09T08:24:43.101Z,2.20
2022-10-09T08:27:10.383Z,3.58
2022-10-09T08:29:40.351Z,2.35
2022-10-09T08:32:15.867Z,4.25
2022-10-09T08:34:45.703Z,1.67
2022-10-09T08:37:15.583Z,3.78
2022-10-09T08:39:51.679Z,3.78
2022-10-09T08:42:36.005Z,3.30
2022-10-09T08:45:11.705Z,3.47
2022-10-09T08:47:45.915Z,2.90
2022-10-09T08:50:30.920Z,3.28
2022-10-09T08:53:11.780Z,2.20
2022-10-09T08:55:59.458Z,2.35
2022-10-09T08:58:32.391Z,1.58
2022-10-09T09:01:19.183Z,3.92
2022-10-09T09:04:13.142Z,5.18
2022-10-09T09:07:04.457Z,2.35
2022-10-09T09:09:47.156Z,2.75
2022-10-09T09:12:29.863Z,2.97
2022-10-09T09:15:16.383Z,2.97
2022-10-09T09:18:14.037Z,6.43
2022-10-09T09:21:18.138Z,4.43
2022-10-09T09:23:49.074Z,3.50
2022-10-09T09:26:19.597Z,2.33
2022-10-09T09:28:51.751Z,1.73
2022-10-09T09:31:30.489Z,3.70
2022-10-09T09:33:57.896Z,2.53
2022-10-09T09:36:31.230Z,1.98
2022-10-09T09:41:53.619Z,2.65
2022-10-09T09:44:26.617Z,2.50
2022-10-09T09:47:01.312Z,3.00
2022-10-09T09:49:30.152Z,2.80
2022-10-09T09:52:04.487Z,4.90
2022-10-09T09:54:32.085Z,3.90
2022-10-09T09:57:13.942Z,2.55
2022-10-09T09:59:45.468Z,1.45
2022-10-09T10:02:18.883Z,2.17
2022-10-09T10:05:01.470Z,4.20
2022-10-09T10:07:43.469Z,3.05
2022-10-09T10:10:23.965Z,1.63
2022-10-09T10:12:55.691Z,3.65
2022-10-09T10:15:32.468Z,3.05
2022-10-09T10:18:05.980Z,2.33
2022-10-09T10:20:50.574Z,3.38
2022-10-09T10:23:38.916Z,3.72
2022-10-09T10:26:40.681Z,1.30
2022-10-09T10:29:24.650Z,1.00
2022-10-09T10:32:05.500Z,1.67
2022-10-09T10:34:53.764Z,2.28
2022-10-09T10:37:20.785Z,0.85
2022-10-09T10:40:01.676Z,1.15
2022-10-09T10:43:00.288Z,2.65
2022-10-09T10:45:33.103Z,1.45
2022-10-09T10:48:08.109Z,3.20
2022-10-09T10:50:41.252Z,1.20
2022-10-09T10:53:25.676Z,2.05
2022-10-09T10:56:04.191Z,2.47
2022-10-09T10:58:51.755Z,2.30
2022-10-09T11:01:29.125Z,1.75
2022-10-09T11:04:21.799Z,2.95
2022-10-09T11:07:16.785Z,2.63
2022-10-09T11:10:14.294Z,2.35
2022-10-09T11:12:48.586Z,3.33
2022-10-09T11:15:31.013Z,1.15
2022-10-09T11:18:24.646Z,1.02
2022-10-09T11:21:02.204Z,2.50
2022-10-09T11:23:49.291Z,1.90
2022-10-09T11:27:04.601Z,1.55
2022-10-09T11:29:47.932Z,1.90
2022-10-09T11:32:25.069Z,5.50
2022-10-09T11:35:10.958Z,2.00
2022-10-09T11:37:41.104Z,3.38
2022-10-09T11:40:20.436Z,1.20
2022-10-09T11:43:01.780Z,1.90
2022-10-09T11:45:54.193Z,2.53
2022-10-09T11:48:49.248Z,10.48
2022-10-09T11:51:50.770Z,2.88
2022-10-09T11:54:21.572Z,1.30
2022-10-09T11:56:57.143Z,1.45
2022-10-09T11:59:31.472Z,2.25
2022-10-09T12:02:01.624Z,3.72
2022-10-09T12:04:50.470Z,4.90
2022-10-09T12:07:49.656Z,1.95
2022-10-09T12:10:35.192Z,1.92
2022-10-09T12:13:08.194Z,3.22
2022-10-09T12:15:48.719Z,1.67
2022-10-09T12:18:36.761Z,2.45
2022-10-09T12:21:07.345Z,2.67
2022-10-09T12:23:40.672Z,5.60
2022-10-09T12:26:14.667Z,4.38
2022-10-09T12:28:57.135Z,1.95
2022-10-09T12:31:27.658Z,4.18
2022-10-09T12:34:07.702Z,3.60
2022-10-09T12:36:35.108Z,1.52
2022-10-09T12:39:20.517Z,0.45
2022-10-09T12:41:53.529Z,2.03
2022-10-09T12:44:34.487Z,1.77
2022-10-09T12:47:27.142Z,0.98
2022-10-09T12:49:58.590Z,2.72
2022-10-09T12:52:33.162Z,0.80
2022-10-09T12:55:02.635Z,1.80
2022-10-09T12:57:31.363Z,1.88
2022-10-09T13:00:01.455Z,3.67
2022-10-09T13:02:31.921Z,1.77
2022-10-09T13:05:02.267Z,1.83
2022-10-09T13:07:35.162Z,1.73
2022-10-09T13:10:07.613Z,2.28
2022-10-09T13:12:40.163Z,2.30
2022-10-09T13:15:28.887Z,5.60
2022-10-09T13:18:01.687Z,1.63
2022-10-09T13:20:38.357Z,1.73
2022-10-09T13:23:28.852Z,1.30
2022-10-09T13:25:59.912Z,2.15
2022-10-09T13:28:35.305Z,0.73
2022-10-09T13:31:11.938Z,1.25
2022-10-09T13:33:39.564Z,4.93
2022-10-09T13:36:07.159Z,0.68
2022-10-09T13:38:35.577Z,3.67
2022-10-09T13:41:06.615Z,2.33
2022-10-09T13:43:33.970Z,2.63
2022-10-09T13:46:01.497Z,3.03
2022-10-09T13:48:32.304Z,2.50
2022-10-09T13:51:00.418Z,1.42
2022-10-09T13:53:28.032Z,1.40
2022-10-09T13:56:00.046Z,1.65
2022-10-09T13:58:29.645Z,1.65
2022-10-09T14:01:02.854Z,2.35
2022-10-09T14:03:33.074Z,2.03
2022-10-09T14:06:04.966Z,1.38
2022-10-09T14:08:32.920Z,1.80
2022-10-09T14:11:01.683Z,3.70
2022-10-09T14:13:30.089Z,1.58
2022-10-09T14:15:57.497Z,2.13
2022-10-09T14:18:25.537Z,1.30
2022-10-09T14:20:55.140Z,2.53
2022-10-09T14:23:22.733Z,2.83
2022-10-09T14:25:53.670Z,1.55
2022-10-09T14:28:20.901Z,0.88
2022-10-09T14:30:51.197Z,2.55
2022-10-09T14:33:21.131Z,1.00
2022-10-09T14:35:48.705Z,2.25
2022-10-09T14:38:15.845Z,2.53
2022-10-09T14:40:46.907Z,0.98
2022-10-09T14:43:14.886Z,1.45
2022-10-09T14:45:42.166Z,3.75
2022-10-09T14:48:11.744Z,1.73
2022-10-09T14:50:45.330Z,2.20
2022-10-09T14:53:19.988Z,1.80
2022-10-09T14:55:47.300Z,1.58
2022-10-09T14:58:15.015Z,4.55
2022-10-09T15:00:50.211Z,2.50
2022-10-09T15:03:20.402Z,2.08
2022-10-09T15:05:50.276Z,2.03
2022-10-09T15:08:21.131Z,3.35
2022-10-09T15:10:52.141Z,2.42
2022-10-09T15:13:19.248Z,6.25
2022-10-09T15:15:47.728Z,4.43
2022-10-09T15:18:15.331Z,3.33
2022-10-09T15:20:47.339Z,2.35
2022-10-09T15:23:18.198Z,1.98
2022-10-09T15:25:52.715Z,2.92
2022-10-09T15:28:31.652Z,2.90
2022-10-09T15:31:01.258Z,3.13
2022-10-09T15:33:28.484Z,2.97
2022-10-09T15:35:56.573Z,2.13
2022-10-09T15:38:28.279Z,1.50
2022-10-09T15:40:56.918Z,3.40
2022-10-09T15:43:27.755Z,3.05
2022-10-09T15:46:03.873Z,3.97
2022-10-09T15:48:49.239Z,2.95
2022-10-09T15:51:17.556Z,2.88
2022-10-09T15:53:47.065Z,2.22
2022-10-09T15:56:17.246Z,3.03
2022-10-09T15:58:48.229Z,4.45
2022-10-09T16:01:17.382Z,4.10
2022-10-09T16:03:49.744Z,2.80
2022-10-09T16:06:23.207Z,4.63
2022-10-09T16:08:55.993Z,5.72
2022-10-09T16:11:49.222Z,4.85
2022-10-09T16:14:17.403Z,8.90
2022-10-09T16:16:53.167Z,8.77
2022-10-09T16:19:20.555Z,8.48
2022-10-09T16:21:50.826Z,9.57
2022-10-09T16:24:20.340Z,12.77
2022-10-09T16:26:47.570Z,13.73
2022-10-09T16:29:18.117Z,13.68
2022-10-09T16:31:45.361Z,15.25
2022-10-09T16:34:13.556Z,11.57
2022-10-09T16:36:40.909Z,10.77
2022-10-09T16:39:14.311Z,13.13
2022-10-09T16:41:42.309Z,9.90
2022-10-09T16:44:17.391Z,12.93
2022-10-09T16:46:44.721Z,9.52
2022-10-09T16:49:21.269Z,11.65
2022-10-09T16:51:51.598Z,9.45
2022-10-09T16:54:19.774Z,10.05
2022-10-09T16:56:46.811Z,11.02
2022-10-09T16:59:14.285Z,10.30
2022-10-09T17:01:47.498Z,9.23
2022-10-09T17:04:15.035Z,9.38
2022-10-09T17:06:46.511Z,7.20
2022-10-09T17:09:14.545Z,9.25
2022-10-09T17:11:52.586Z,11.73
2022-10-09T17:14:20.070Z,10.70
2022-10-09T17:16:47.418Z,12.43
2022-10-09T17:19:15.884Z,9.63
2022-10-09T17:21:49.406Z,7.53
2022-10-09T17:24:17.247Z,7.93
2022-10-09T17:26:44.502Z,8.43
2022-10-09T17:29:19.068Z,9.45
2022-10-09T17:31:46.187Z,9.10
2022-10-09T17:34:14.894Z,9.48
2022-10-09T17:36:52.187Z,11.38
2022-10-09T17:39:22.808Z,11.88
2022-10-09T17:41:50.566Z,9.57
2022-10-09T17:44:20.670Z,8.48
2022-10-09T17:46:48.002Z,9.90
2022-10-09T17:49:15.661Z,9.48
2022-10-09T17:51:43.046Z,9.38
2022-10-09T17:54:17.032Z,7.75
2022-10-09T17:56:51.570Z,7.30
2022-10-09T17:59:19.436Z,8.52
2022-10-09T18:01:47.587Z,8.48
2022-10-09T18:04:16.852Z,6.85
2022-10-09T18:06:44.341Z,9.75
2022-10-09T18:09:12.518Z,7.97
2022-10-09T18:11:39.911Z,6.97
2022-10-09T18:14:07.743Z,12.35
2022-10-09T18:16:39.783Z,6.88
2022-10-09T18:19:13.488Z,8.75
2022-10-09T18:21:47.983Z,9.05
2022-10-09T18:24:20.440Z,11.10
2022-10-09T18:26:48.203Z,10.35
2022-10-09T18:29:16.626Z,12.77
2022-10-09T18:31:43.899Z,11.45
2022-10-09T18:34:11.261Z,11.48
2022-10-09T18:36:39.539Z,12.65
2022-10-09T18:39:14.354Z,9.32
2022-10-09T18:41:42.875Z,5.68
2022-10-09T18:44:17.571Z,6.10
2022-10-09T18:46:49.860Z,10.43
2022-10-09T18:49:24.409Z,9.48
2022-10-09T18:51:57.487Z,10.48
2022-10-09T18:54:27.063Z,8.13
2022-10-09T18:56:54.751Z,10.27
2022-10-09T18:59:23.303Z,14.30
2022-10-09T19:01:50.977Z,11.15
2022-10-09T19:04:21.645Z,15.13
2022-10-09T19:06:50.586Z,16.48
2022-10-09T19:09:18.079Z,16.77
2022-10-09T19:11:45.321Z,18.98
2022-10-09T19:14:13.210Z,15.20
2022-10-09T19:16:43.849Z,16.88
2022-10-09T19:19:17.306Z,15.98
2022-10-09T19:21:50.964Z,15.32
2022-10-09T19:24:22.583Z,13.20
2022-10-09T19:26:59.676Z,11.35
2022-10-09T19:29:27.713Z,12.88
2022-10-09T19:31:57.954Z,10.48
2022-10-09T19:34:27.650Z,8.80
2022-10-09T19:36:55.044Z,12.02
2022-10-09T19:39:22.823Z,6.72
2022-10-09T19:41:52.436Z,9.52
2022-10-09T19:44:20.148Z,6.68
2022-10-09T19:46:48.819Z,8.63
2022-10-09T19:49:23.766Z,6.20
2022-10-09T19:51:51.943Z,8.13
2022-10-09T19:54:21.526Z,5.53
2022-10-09T19:56:49.176Z,6.15
2022-10-09T19:59:16.958Z,11.98
2022-10-09T20:01:45.246Z,5.75
2022-10-09T20:04:12.704Z,6.32
2022-10-09T20:06:44.461Z,7.53
2022-10-09T20:11:43.934Z,6.65
2022-10-09T20:14:13.695Z,7.45
2022-10-09T20:16:41.323Z,7.78
2022-10-09T20:19:08.917Z,6.47
2022-10-09T20:21:36.512Z,7.68
2022-10-09T20:24:03.729Z,4.90
2022-10-09T20:26:33.601Z,5.57
2022-10-09T20:29:01.062Z,4.90
2022-10-09T20:31:33.747Z,11.48
2022-10-09T20:34:01.092Z,5.82
2022-10-09T20:36:35.315Z,4.28
2022-10-09T20:39:09.085Z,5.97
2022-10-09T20:41:38.755Z,5.65
2022-10-09T20:44:06.463Z,5.97
2022-10-09T20:46:41.245Z,6.18
2022-10-09T20:49:13.522Z,7.43
2022-10-09T20:51:42.095Z,5.10
2022-10-09T20:54:16.339Z,7.70
2022-10-09T20:56:45.149Z,7.18
2022-10-09T20:59:13.406Z,7.82
2022-10-09T21:01:41.109Z,8.13
2022-10-09T21:04:13.435Z,6.90
2022-10-09T21:06:41.800Z,6.90
2022-10-09T21:09:14.387Z,6.97
2022-10-09T21:11:50.411Z,8.85
2022-10-09T21:14:17.594Z,5.68
2022-10-09T21:16:45.513Z,8.38
2022-10-09T21:19:12.768Z,5.18
2022-10-09T21:21:45.385Z,5.68
2022-10-09T21:24:22.441Z,7.80
2022-10-09T21:26:50.333Z,3.95
2022-10-09T21:29:24.908Z,6.93
2022-10-09T21:31:58.062Z,6.13
2022-10-09T21:34:31.067Z,4.13
2022-10-09T21:39:56.131Z,4.38
2022-10-09T21:42:23.530Z,3.28
2022-10-09T21:44:53.890Z,6.75
2022-10-09T21:47:21.121Z,7.80
2022-10-09T21:49:48.908Z,3.83
2022-10-09T21:52:17.734Z,7.45
2022-10-09T21:54:45.747Z,5.78
2022-10-09T21:57:18.008Z,4.63
2022-10-09T21:59:51.255Z,4.70
2022-10-09T22:02:21.835Z,6.45
2022-10-09T22:04:51.759Z,4.03
2022-10-09T22:07:19.115Z,5.90
2022-10-09T22:09:47.414Z,7.55
2022-10-09T22:12:15.212Z,3.63
2022-10-09T22:14:42.460Z,7.78
2022-10-09T22:17:10.640Z,4.88
2022-10-09T22:19:38.396Z,5.55
2022-10-09T22:22:06.358Z,11.20
2022-10-09T22:24:33.752Z,8.45
2022-10-09T22:27:00.941Z,11.90
2022-10-09T22:29:29.936Z,10.05
2022-10-09T22:31:57.582Z,9.85
2022-10-09T22:34:28.927Z,6.10
2022-10-09T22:36:56.661Z,10.50
2022-10-09T22:39:23.993Z,9.52
2022-10-09T22:41:51.687Z,6.97
2022-10-09T22:44:18.849Z,6.95
2022-10-09T22:46:46.994Z,9.05
2022-10-09T22:49:18.418Z,7.70
2022-10-09T22:51:45.978Z,6.38
2022-10-09T22:54:14.175Z,7.50
2022-10-09T22:56:44.456Z,8.35
2022-10-09T22:59:18.250Z,9.15
2022-10-09T23:01:53.477Z,13.52
2022-10-09T23:04:24.955Z,13.10
2022-10-09T23:06:57.554Z,8.65
2022-10-09T23:09:31.278Z,8.60
2022-10-09T23:12:02.191Z,9.63
2022-10-09T23:14:29.601Z,6.28
2022-10-09T23:16:57.246Z,7.05
2022-10-09T23:19:25.395Z,6.32
2022-10-09T23:21:52.949Z,5.38
2022-10-09T23:24:20.811Z,5.22
2022-10-09T23:26:52.685Z,6.07
2022-10-09T23:29:21.561Z,5.35
2022-10-09T23:31:57.464Z,6.97
2022-10-09T23:34:24.712Z,8.98
2022-10-09T23:36:52.021Z,7.50
2022-10-09T23:39:19.460Z,7.65
2022-10-09T23:41:48.069Z,6.35
2022-10-09T23:44:19.998Z,7.40
2022-10-09T23:46:49.089Z,8.73
2022-10-09T23:49:18.713Z,7.45
2022-10-09T23:51:48.145Z,8.00
2022-10-09T23:54:18.266Z,6.93
2022-10-09T23:56:49.924Z,6.60
2022-10-09T23:59:17.165Z,7.93
